sensor_id;sensor_type;location;lat;lon;timestamp;P1;durP1;ratioP1;P2;durP2;ratioP2
36817;SDS011;22761;51.542;16.450;2024-02-14T00:01:25;39.30;;;21.40;;
36817;SDS011;22761;51.542;16.450;2024-02-14T00:03:53;43.40;;;22.50;;
36817;SDS011;22761;51.542;16.450;2024-02-14T00:06:21;39.10;;;22.40;;
36817;SDS011;22761;51.542;16.450;2024-02-14T00:08:50;38.20;;;21.90;;
36817;SDS011;22761;51.542;16.450;2024-02-14T00:11:20;40.50;;;23.40;;
36817;SDS011;22761;51.542;16.450;2024-02-14T00:13:49;42.40;;;24.40;;
36817;SDS011;22761;51.542;16.450;2024-02-14T00:16:17;42.70;;;23.00;;
36817;SDS011;22761;51.542;16.450;2024-02-14T00:18:46;41.00;;;23.10;;
36817;SDS011;22761;51.542;16.450;2024-02-14T00:21:14;42.80;;;25.30;;
36817;SDS011;22761;51.542;16.450;2024-02-14T00:23:43;46.20;;;24.00;;
36817;SDS011;22761;51.542;16.450;2024-02-14T00:26:12;38.20;;;21.80;;
36817;SDS011;22761;51.542;16.450;2024-02-14T00:28:40;39.80;;;23.00;;
36817;SDS011;22761;51.542;16.450;2024-02-14T00:31:08;45.50;;;23.20;;
36817;SDS011;22761;51.542;16.450;2024-02-14T00:33:36;39.80;;;23.10;;
36817;SDS011;22761;51.542;16.450;2024-02-14T00:36:05;40.50;;;23.00;;
36817;SDS011;22761;51.542;16.450;2024-02-14T00:38:34;40.40;;;22.10;;
36817;SDS011;22761;51.542;16.450;2024-02-14T00:41:02;40.30;;;22.60;;
36817;SDS011;22761;51.542;16.450;2024-02-14T00:43:31;40.50;;;22.50;;
36817;SDS011;22761;51.542;16.450;2024-02-14T00:45:59;36.90;;;21.50;;
36817;SDS011;22761;51.542;16.450;2024-02-14T00:48:27;36.90;;;22.50;;
36817;SDS011;22761;51.542;16.450;2024-02-14T00:50:55;35.70;;;20.60;;
36817;SDS011;22761;51.542;16.450;2024-02-14T00:53:24;36.20;;;22.30;;
36817;SDS011;22761;51.542;16.450;2024-02-14T00:55:52;38.20;;;21.00;;
36817;SDS011;22761;51.542;16.450;2024-02-14T00:58:20;38.60;;;21.60;;
36817;SDS011;22761;51.542;16.450;2024-02-14T01:00:48;48.40;;;25.30;;
36817;SDS011;22761;51.542;16.450;2024-02-14T01:03:17;41.00;;;22.10;;
36817;SDS011;22761;51.542;16.450;2024-02-14T01:05:45;40.50;;;23.90;;
36817;SDS011;22761;51.542;16.450;2024-02-14T01:08:13;47.80;;;24.50;;
36817;SDS011;22761;51.542;16.450;2024-02-14T01:10:42;40.00;;;22.90;;
36817;SDS011;22761;51.542;16.450;2024-02-14T01:13:10;38.30;;;22.30;;
36817;SDS011;22761;51.542;16.450;2024-02-14T01:15:38;37.10;;;21.60;;
36817;SDS011;22761;51.542;16.450;2024-02-14T01:18:07;38.90;;;22.30;;
36817;SDS011;22761;51.542;16.450;2024-02-14T01:20:35;39.50;;;22.20;;
36817;SDS011;22761;51.542;16.450;2024-02-14T01:23:05;38.90;;;23.50;;
36817;SDS011;22761;51.542;16.450;2024-02-14T01:25:34;44.80;;;24.70;;
36817;SDS011;22761;51.542;16.450;2024-02-14T01:28:02;45.10;;;25.50;;
36817;SDS011;22761;51.542;16.450;2024-02-14T01:30:30;54.90;;;28.60;;
36817;SDS011;22761;51.542;16.450;2024-02-14T01:32:58;58.80;;;32.00;;
36817;SDS011;22761;51.542;16.450;2024-02-14T01:35:29;62.00;;;32.00;;
36817;SDS011;22761;51.542;16.450;2024-02-14T01:37:58;58.80;;;30.40;;
36817;SDS011;22761;51.542;16.450;2024-02-14T01:40:26;64.10;;;34.30;;
36817;SDS011;22761;51.542;16.450;2024-02-14T01:42:54;63.50;;;32.20;;
36817;SDS011;22761;51.542;16.450;2024-02-14T01:45:23;57.60;;;31.30;;
36817;SDS011;22761;51.542;16.450;2024-02-14T01:47:51;57.40;;;32.10;;
36817;SDS011;22761;51.542;16.450;2024-02-14T01:50:20;63.40;;;32.30;;
36817;SDS011;22761;51.542;16.450;2024-02-14T01:52:57;62.10;;;33.10;;
36817;SDS011;22761;51.542;16.450;2024-02-14T01:55:27;62.10;;;32.50;;
36817;SDS011;22761;51.542;16.450;2024-02-14T01:57:55;63.10;;;32.10;;
36817;SDS011;22761;51.542;16.450;2024-02-14T02:00:24;61.00;;;31.40;;
36817;SDS011;22761;51.542;16.450;2024-02-14T02:02:54;57.60;;;32.00;;
36817;SDS011;22761;51.542;16.450;2024-02-14T02:05:26;57.40;;;33.00;;
36817;SDS011;22761;51.542;16.450;2024-02-14T02:07:55;52.40;;;30.60;;
36817;SDS011;22761;51.542;16.450;2024-02-14T02:10:23;59.40;;;31.60;;
36817;SDS011;22761;51.542;16.450;2024-02-14T02:12:59;58.30;;;31.90;;
36817;SDS011;22761;51.542;16.450;2024-02-14T02:15:28;61.10;;;31.80;;
36817;SDS011;22761;51.542;16.450;2024-02-14T02:17:57;59.60;;;30.80;;
36817;SDS011;22761;51.542;16.450;2024-02-14T02:20:28;57.50;;;31.70;;
36817;SDS011;22761;51.542;16.450;2024-02-14T02:22:56;52.10;;;29.60;;
36817;SDS011;22761;51.542;16.450;2024-02-14T02:25:25;52.80;;;29.30;;
36817;SDS011;22761;51.542;16.450;2024-02-14T02:27:55;53.20;;;29.60;;
36817;SDS011;22761;51.542;16.450;2024-02-14T02:30:24;55.10;;;29.10;;
36817;SDS011;22761;51.542;16.450;2024-02-14T02:32:53;50.40;;;28.40;;
36817;SDS011;22761;51.542;16.450;2024-02-14T02:35:21;49.10;;;28.10;;
36817;SDS011;22761;51.542;16.450;2024-02-14T02:40:21;59.50;;;29.00;;
36817;SDS011;22761;51.542;16.450;2024-02-14T02:42:50;55.50;;;28.80;;
36817;SDS011;22761;51.542;16.450;2024-02-14T02:45:19;43.60;;;26.70;;
36817;SDS011;22761;51.542;16.450;2024-02-14T02:47:48;53.30;;;28.80;;
36817;SDS011;22761;51.542;16.450;2024-02-14T02:50:20;52.60;;;28.40;;
36817;SDS011;22761;51.542;16.450;2024-02-14T02:52:49;51.80;;;29.30;;
36817;SDS011;22761;51.542;16.450;2024-02-14T02:55:18;55.60;;;28.80;;
36817;SDS011;22761;51.542;16.450;2024-02-14T02:57:46;49.60;;;27.50;;
36817;SDS011;22761;51.542;16.450;2024-02-14T03:00:15;51.20;;;29.10;;
36817;SDS011;22761;51.542;16.450;2024-02-14T03:02:44;48.30;;;27.30;;
36817;SDS011;22761;51.542;16.450;2024-02-14T03:05:13;48.30;;;27.30;;
36817;SDS011;22761;51.542;16.450;2024-02-14T03:07:51;47.20;;;26.10;;
36817;SDS011;22761;51.542;16.450;2024-02-14T03:10:20;48.50;;;26.60;;
36817;SDS011;22761;51.542;16.450;2024-02-14T03:12:50;49.60;;;27.30;;
36817;SDS011;22761;51.542;16.450;2024-02-14T03:15:18;42.40;;;25.00;;
36817;SDS011;22761;51.542;16.450;2024-02-14T03:17:47;47.10;;;24.30;;
36817;SDS011;22761;51.542;16.450;2024-02-14T03:20:16;50.50;;;26.60;;
36817;SDS011;22761;51.542;16.450;2024-02-14T03:22:46;49.90;;;25.30;;
36817;SDS011;22761;51.542;16.450;2024-02-14T03:25:16;34.90;;;19.50;;
36817;SDS011;22761;51.542;16.450;2024-02-14T03:27:46;47.80;;;26.60;;
36817;SDS011;22761;51.542;16.450;2024-02-14T03:30:15;46.00;;;25.60;;
36817;SDS011;22761;51.542;16.450;2024-02-14T03:32:46;48.00;;;25.10;;
36817;SDS011;22761;51.542;16.450;2024-02-14T03:35:15;43.90;;;24.60;;
36817;SDS011;22761;51.542;16.450;2024-02-14T03:37:45;42.40;;;23.70;;
36817;SDS011;22761;51.542;16.450;2024-02-14T03:40:16;43.10;;;23.70;;
36817;SDS011;22761;51.542;16.450;2024-02-14T03:42:45;45.00;;;24.30;;
36817;SDS011;22761;51.542;16.450;2024-02-14T03:45:13;41.90;;;24.20;;
36817;SDS011;22761;51.542;16.450;2024-02-14T03:47:42;43.20;;;25.00;;
36817;SDS011;22761;51.542;16.450;2024-02-14T03:50:10;49.10;;;25.90;;
36817;SDS011;22761;51.542;16.450;2024-02-14T03:52:39;41.20;;;25.00;;
36817;SDS011;22761;51.542;16.450;2024-02-14T03:55:07;44.10;;;25.60;;
36817;SDS011;22761;51.542;16.450;2024-02-14T03:57:37;41.90;;;24.80;;
36817;SDS011;22761;51.542;16.450;2024-02-14T04:00:07;45.80;;;25.60;;
36817;SDS011;22761;51.542;16.450;2024-02-14T04:02:42;45.90;;;26.00;;
36817;SDS011;22761;51.542;16.450;2024-02-14T04:05:11;50.00;;;26.40;;
36817;SDS011;22761;51.542;16.450;2024-02-14T04:07:39;50.70;;;26.40;;
36817;SDS011;22761;51.542;16.450;2024-02-14T04:10:08;46.20;;;26.50;;
36817;SDS011;22761;51.542;16.450;2024-02-14T04:12:36;43.90;;;26.70;;
36817;SDS011;22761;51.542;16.450;2024-02-14T04:15:05;45.30;;;27.00;;
36817;SDS011;22761;51.542;16.450;2024-02-14T04:17:34;50.80;;;27.20;;
36817;SDS011;22761;51.542;16.450;2024-02-14T04:20:03;43.30;;;25.60;;
36817;SDS011;22761;51.542;16.450;2024-02-14T04:22:32;47.80;;;26.60;;
36817;SDS011;22761;51.542;16.450;2024-02-14T04:25:00;50.80;;;26.90;;
36817;SDS011;22761;51.542;16.450;2024-02-14T04:27:28;43.00;;;25.80;;
36817;SDS011;22761;51.542;16.450;2024-02-14T04:29:56;51.90;;;28.30;;
36817;SDS011;22761;51.542;16.450;2024-02-14T04:32:25;44.50;;;26.60;;
36817;SDS011;22761;51.542;16.450;2024-02-14T04:34:53;50.60;;;27.70;;
36817;SDS011;22761;51.542;16.450;2024-02-14T04:37:22;49.90;;;27.30;;
36817;SDS011;22761;51.542;16.450;2024-02-14T04:39:50;50.70;;;27.40;;
36817;SDS011;22761;51.542;16.450;2024-02-14T04:42:19;48.40;;;27.20;;
36817;SDS011;22761;51.542;16.450;2024-02-14T04:44:47;46.40;;;26.40;;
36817;SDS011;22761;51.542;16.450;2024-02-14T04:47:16;49.00;;;26.00;;
36817;SDS011;22761;51.542;16.450;2024-02-14T04:49:44;48.30;;;27.20;;
36817;SDS011;22761;51.542;16.450;2024-02-14T04:52:13;46.30;;;25.20;;
36817;SDS011;22761;51.542;16.450;2024-02-14T04:54:42;45.90;;;24.80;;
36817;SDS011;22761;51.542;16.450;2024-02-14T04:57:10;47.10;;;25.10;;
36817;SDS011;22761;51.542;16.450;2024-02-14T04:59:38;48.50;;;25.90;;
36817;SDS011;22761;51.542;16.450;2024-02-14T05:02:06;43.40;;;25.10;;
36817;SDS011;22761;51.542;16.450;2024-02-14T05:04:35;47.80;;;26.60;;
36817;SDS011;22761;51.542;16.450;2024-02-14T05:07:05;47.30;;;25.90;;
36817;SDS011;22761;51.542;16.450;2024-02-14T05:09:35;51.60;;;27.10;;
36817;SDS011;22761;51.542;16.450;2024-02-14T05:12:03;47.60;;;26.70;;
36817;SDS011;22761;51.542;16.450;2024-02-14T05:14:31;50.40;;;26.30;;
36817;SDS011;22761;51.542;16.450;2024-02-14T05:17:00;48.00;;;25.90;;
36817;SDS011;22761;51.542;16.450;2024-02-14T05:19:29;45.00;;;25.90;;
36817;SDS011;22761;51.542;16.450;2024-02-14T05:21:58;41.10;;;25.50;;
36817;SDS011;22761;51.542;16.450;2024-02-14T05:24:26;45.60;;;26.40;;
36817;SDS011;22761;51.542;16.450;2024-02-14T05:26:55;41.30;;;24.50;;
36817;SDS011;22761;51.542;16.450;2024-02-14T05:29:23;46.60;;;26.30;;
36817;SDS011;22761;51.542;16.450;2024-02-14T05:31:51;44.70;;;25.70;;
36817;SDS011;22761;51.542;16.450;2024-02-14T05:34:23;39.40;;;24.00;;
36817;SDS011;22761;51.542;16.450;2024-02-14T05:36:52;45.00;;;25.30;;
36817;SDS011;22761;51.542;16.450;2024-02-14T05:39:20;43.10;;;24.10;;
36817;SDS011;22761;51.542;16.450;2024-02-14T05:41:49;43.60;;;24.40;;
36817;SDS011;22761;51.542;16.450;2024-02-14T05:44:17;38.00;;;23.30;;
36817;SDS011;22761;51.542;16.450;2024-02-14T05:46:45;44.30;;;24.00;;
36817;SDS011;22761;51.542;16.450;2024-02-14T05:49:14;46.30;;;26.50;;
36817;SDS011;22761;51.542;16.450;2024-02-14T05:51:42;45.00;;;25.30;;
36817;SDS011;22761;51.542;16.450;2024-02-14T05:54:10;49.80;;;25.10;;
36817;SDS011;22761;51.542;16.450;2024-02-14T05:56:39;47.60;;;25.20;;
36817;SDS011;22761;51.542;16.450;2024-02-14T05:59:07;40.90;;;22.50;;
36817;SDS011;22761;51.542;16.450;2024-02-14T06:01:35;41.40;;;22.90;;
36817;SDS011;22761;51.542;16.450;2024-02-14T06:04:04;38.50;;;20.70;;
36817;SDS011;22761;51.542;16.450;2024-02-14T06:06:32;41.40;;;22.40;;
36817;SDS011;22761;51.542;16.450;2024-02-14T06:09:00;42.80;;;22.30;;
36817;SDS011;22761;51.542;16.450;2024-02-14T06:11:29;76.50;;;28.60;;
36817;SDS011;22761;51.542;16.450;2024-02-14T06:13:57;120.80;;;43.10;;
36817;SDS011;22761;51.542;16.450;2024-02-14T06:16:25;65.20;;;27.90;;
36817;SDS011;22761;51.542;16.450;2024-02-14T06:18:53;37.80;;;21.00;;
36817;SDS011;22761;51.542;16.450;2024-02-14T06:21:22;38.00;;;20.40;;
36817;SDS011;22761;51.542;16.450;2024-02-14T06:23:50;33.40;;;18.60;;
36817;SDS011;22761;51.542;16.450;2024-02-14T06:26:19;65.70;;;27.20;;
36817;SDS011;22761;51.542;16.450;2024-02-14T06:28:48;72.60;;;30.90;;
36817;SDS011;22761;51.542;16.450;2024-02-14T06:31:22;55.20;;;25.40;;
36817;SDS011;22761;51.542;16.450;2024-02-14T06:33:50;62.60;;;31.20;;
36817;SDS011;22761;51.542;16.450;2024-02-14T06:36:19;54.80;;;23.60;;
36817;SDS011;22761;51.542;16.450;2024-02-14T06:38:47;58.20;;;25.30;;
36817;SDS011;22761;51.542;16.450;2024-02-14T06:41:15;61.50;;;26.20;;
36817;SDS011;22761;51.542;16.450;2024-02-14T06:43:43;58.90;;;26.80;;
36817;SDS011;22761;51.542;16.450;2024-02-14T06:46:11;37.80;;;20.50;;
36817;SDS011;22761;51.542;16.450;2024-02-14T06:48:40;33.50;;;19.70;;
36817;SDS011;22761;51.542;16.450;2024-02-14T06:51:09;60.20;;;25.30;;
36817;SDS011;22761;51.542;16.450;2024-02-14T06:53:37;57.80;;;24.70;;
36817;SDS011;22761;51.542;16.450;2024-02-14T06:56:06;50.10;;;23.10;;
36817;SDS011;22761;51.542;16.450;2024-02-14T06:58:34;41.10;;;21.70;;
36817;SDS011;22761;51.542;16.450;2024-02-14T07:01:02;37.30;;;21.10;;
36817;SDS011;22761;51.542;16.450;2024-02-14T07:03:31;38.60;;;21.50;;
36817;SDS011;22761;51.542;16.450;2024-02-14T07:05:59;39.80;;;20.80;;
36817;SDS011;22761;51.542;16.450;2024-02-14T07:08:28;36.70;;;21.00;;
36817;SDS011;22761;51.542;16.450;2024-02-14T07:10:56;48.90;;;24.00;;
36817;SDS011;22761;51.542;16.450;2024-02-14T07:13:25;43.80;;;22.30;;
36817;SDS011;22761;51.542;16.450;2024-02-14T07:15:53;40.80;;;22.30;;
36817;SDS011;22761;51.542;16.450;2024-02-14T07:18:21;41.50;;;22.50;;
36817;SDS011;22761;51.542;16.450;2024-02-14T07:20:49;34.70;;;20.00;;
36817;SDS011;22761;51.542;16.450;2024-02-14T07:23:19;38.90;;;21.90;;
36817;SDS011;22761;51.542;16.450;2024-02-14T07:25:48;35.00;;;20.30;;
36817;SDS011;22761;51.542;16.450;2024-02-14T07:28:16;32.80;;;20.80;;
36817;SDS011;22761;51.542;16.450;2024-02-14T07:30:45;35.60;;;20.30;;
36817;SDS011;22761;51.542;16.450;2024-02-14T07:33:13;34.40;;;19.40;;
36817;SDS011;22761;51.542;16.450;2024-02-14T07:35:42;38.40;;;20.30;;
36817;SDS011;22761;51.542;16.450;2024-02-14T07:38:10;32.80;;;19.80;;
36817;SDS011;22761;51.542;16.450;2024-02-14T07:40:39;35.90;;;19.00;;
36817;SDS011;22761;51.542;16.450;2024-02-14T07:43:07;36.70;;;20.20;;
36817;SDS011;22761;51.542;16.450;2024-02-14T07:45:36;30.60;;;18.40;;
36817;SDS011;22761;51.542;16.450;2024-02-14T07:48:04;29.30;;;19.10;;
36817;SDS011;22761;51.542;16.450;2024-02-14T07:50:33;30.30;;;17.60;;
36817;SDS011;22761;51.542;16.450;2024-02-14T07:53:01;32.90;;;17.70;;
36817;SDS011;22761;51.542;16.450;2024-02-14T07:55:30;32.20;;;18.90;;
36817;SDS011;22761;51.542;16.450;2024-02-14T07:57:59;32.50;;;19.90;;
36817;SDS011;22761;51.542;16.450;2024-02-14T08:00:27;33.00;;;19.90;;
36817;SDS011;22761;51.542;16.450;2024-02-14T08:02:56;31.10;;;19.40;;
36817;SDS011;22761;51.542;16.450;2024-02-14T08:05:24;35.70;;;19.90;;
36817;SDS011;22761;51.542;16.450;2024-02-14T08:07:53;33.90;;;18.30;;
36817;SDS011;22761;51.542;16.450;2024-02-14T08:10:21;29.90;;;18.40;;
36817;SDS011;22761;51.542;16.450;2024-02-14T08:12:49;32.80;;;19.00;;
36817;SDS011;22761;51.542;16.450;2024-02-14T08:15:18;34.00;;;20.70;;
36817;SDS011;22761;51.542;16.450;2024-02-14T08:17:46;31.50;;;20.00;;
36817;SDS011;22761;51.542;16.450;2024-02-14T08:20:16;34.90;;;19.80;;
36817;SDS011;22761;51.542;16.450;2024-02-14T08:22:46;32.20;;;20.50;;
36817;SDS011;22761;51.542;16.450;2024-02-14T08:25:14;35.60;;;21.50;;
36817;SDS011;22761;51.542;16.450;2024-02-14T08:27:42;28.00;;;18.40;;
36817;SDS011;22761;51.542;16.450;2024-02-14T08:30:11;30.50;;;19.00;;
36817;SDS011;22761;51.542;16.450;2024-02-14T08:32:40;28.90;;;17.80;;
36817;SDS011;22761;51.542;16.450;2024-02-14T08:35:09;30.60;;;18.20;;
36817;SDS011;22761;51.542;16.450;2024-02-14T08:37:38;27.20;;;17.60;;
36817;SDS011;22761;51.542;16.450;2024-02-14T08:40:08;32.30;;;18.00;;
36817;SDS011;22761;51.542;16.450;2024-02-14T08:42:37;31.90;;;19.00;;
36817;SDS011;22761;51.542;16.450;2024-02-14T08:45:07;27.60;;;17.70;;
36817;SDS011;22761;51.542;16.450;2024-02-14T08:47:36;31.30;;;18.40;;
36817;SDS011;22761;51.542;16.450;2024-02-14T08:50:05;29.60;;;17.00;;
36817;SDS011;22761;51.542;16.450;2024-02-14T08:52:34;27.70;;;16.90;;
36817;SDS011;22761;51.542;16.450;2024-02-14T08:55:02;28.10;;;16.90;;
36817;SDS011;22761;51.542;16.450;2024-02-14T08:57:30;27.80;;;16.70;;
36817;SDS011;22761;51.542;16.450;2024-02-14T08:59:59;30.90;;;17.50;;
36817;SDS011;22761;51.542;16.450;2024-02-14T09:02:29;26.80;;;16.20;;
36817;SDS011;22761;51.542;16.450;2024-02-14T09:04:57;31.10;;;17.90;;
36817;SDS011;22761;51.542;16.450;2024-02-14T09:07:25;32.60;;;18.50;;
36817;SDS011;22761;51.542;16.450;2024-02-14T09:09:54;29.20;;;16.80;;
36817;SDS011;22761;51.542;16.450;2024-02-14T09:12:22;29.30;;;17.60;;
36817;SDS011;22761;51.542;16.450;2024-02-14T09:14:50;26.40;;;16.90;;
36817;SDS011;22761;51.542;16.450;2024-02-14T09:17:19;26.70;;;16.80;;
36817;SDS011;22761;51.542;16.450;2024-02-14T09:19:47;29.00;;;17.70;;
36817;SDS011;22761;51.542;16.450;2024-02-14T09:22:16;25.30;;;17.00;;
36817;SDS011;22761;51.542;16.450;2024-02-14T09:24:50;25.60;;;15.80;;
36817;SDS011;22761;51.542;16.450;2024-02-14T09:27:18;27.10;;;16.70;;
36817;SDS011;22761;51.542;16.450;2024-02-14T09:29:47;23.90;;;15.20;;
36817;SDS011;22761;51.542;16.450;2024-02-14T09:32:16;24.60;;;15.30;;
36817;SDS011;22761;51.542;16.450;2024-02-14T09:34:44;26.40;;;15.60;;
36817;SDS011;22761;51.542;16.450;2024-02-14T09:37:14;23.70;;;15.10;;
36817;SDS011;22761;51.542;16.450;2024-02-14T09:39:42;27.70;;;15.30;;
36817;SDS011;22761;51.542;16.450;2024-02-14T09:42:13;22.40;;;14.60;;
36817;SDS011;22761;51.542;16.450;2024-02-14T09:44:42;24.60;;;15.90;;
36817;SDS011;22761;51.542;16.450;2024-02-14T09:47:11;27.00;;;15.20;;
36817;SDS011;22761;51.542;16.450;2024-02-14T09:49:40;25.40;;;15.50;;
36817;SDS011;22761;51.542;16.450;2024-02-14T09:52:09;22.70;;;15.10;;
36817;SDS011;22761;51.542;16.450;2024-02-14T09:54:39;29.10;;;14.80;;
36817;SDS011;22761;51.542;16.450;2024-02-14T09:57:08;29.40;;;16.60;;
36817;SDS011;22761;51.542;16.450;2024-02-14T09:59:36;27.00;;;15.70;;
36817;SDS011;22761;51.542;16.450;2024-02-14T10:02:05;25.40;;;15.80;;
36817;SDS011;22761;51.542;16.450;2024-02-14T10:04:33;23.70;;;15.20;;
36817;SDS011;22761;51.542;16.450;2024-02-14T10:07:02;24.40;;;14.80;;
36817;SDS011;22761;51.542;16.450;2024-02-14T10:09:30;21.60;;;14.00;;
36817;SDS011;22761;51.542;16.450;2024-02-14T10:11:59;23.00;;;14.20;;
36817;SDS011;22761;51.542;16.450;2024-02-14T10:14:27;23.90;;;14.50;;
36817;SDS011;22761;51.542;16.450;2024-02-14T10:16:55;25.00;;;14.80;;
36817;SDS011;22761;51.542;16.450;2024-02-14T10:19:23;18.40;;;11.90;;
36817;SDS011;22761;51.542;16.450;2024-02-14T10:21:59;18.40;;;12.40;;
36817;SDS011;22761;51.542;16.450;2024-02-14T10:24:28;21.60;;;12.40;;
36817;SDS011;22761;51.542;16.450;2024-02-14T10:26:58;19.00;;;12.20;;
36817;SDS011;22761;51.542;16.450;2024-02-14T10:29:27;18.00;;;11.40;;
36817;SDS011;22761;51.542;16.450;2024-02-14T10:31:56;18.60;;;11.90;;
36817;SDS011;22761;51.542;16.450;2024-02-14T10:34:26;17.30;;;12.50;;
36817;SDS011;22761;51.542;16.450;2024-02-14T10:36:56;17.80;;;11.60;;
36817;SDS011;22761;51.542;16.450;2024-02-14T10:39:25;18.80;;;11.70;;
36817;SDS011;22761;51.542;16.450;2024-02-14T10:41:54;19.20;;;11.10;;
36817;SDS011;22761;51.542;16.450;2024-02-14T10:44:22;16.90;;;11.10;;
36817;SDS011;22761;51.542;16.450;2024-02-14T10:46:51;18.30;;;11.60;;
36817;SDS011;22761;51.542;16.450;2024-02-14T10:49:20;17.40;;;11.40;;
36817;SDS011;22761;51.542;16.450;2024-02-14T10:51:50;16.60;;;11.30;;
36817;SDS011;22761;51.542;16.450;2024-02-14T10:54:21;18.90;;;11.30;;
36817;SDS011;22761;51.542;16.450;2024-02-14T10:56:49;18.20;;;11.90;;
36817;SDS011;22761;51.542;16.450;2024-02-14T10:59:20;17.80;;;11.60;;
36817;SDS011;22761;51.542;16.450;2024-02-14T11:01:49;21.00;;;12.50;;
36817;SDS011;22761;51.542;16.450;2024-02-14T11:04:18;17.00;;;11.00;;
36817;SDS011;22761;51.542;16.450;2024-02-14T11:06:47;14.20;;;10.60;;
36817;SDS011;22761;51.542;16.450;2024-02-14T11:09:16;17.40;;;11.40;;
36817;SDS011;22761;51.542;16.450;2024-02-14T11:11:45;19.90;;;10.50;;
36817;SDS011;22761;51.542;16.450;2024-02-14T11:14:15;14.70;;;9.80;;
36817;SDS011;22761;51.542;16.450;2024-02-14T11:16:45;15.80;;;10.20;;
36817;SDS011;22761;51.542;16.450;2024-02-14T11:19:13;15.60;;;10.00;;
36817;SDS011;22761;51.542;16.450;2024-02-14T11:21:46;19.00;;;10.10;;
36817;SDS011;22761;51.542;16.450;2024-02-14T11:26:48;13.80;;;9.50;;
36817;SDS011;22761;51.542;16.450;2024-02-14T11:29:20;18.10;;;10.40;;
36817;SDS011;22761;51.542;16.450;2024-02-14T11:31:59;16.60;;;10.50;;
36817;SDS011;22761;51.542;16.450;2024-02-14T11:34:28;15.80;;;11.10;;
36817;SDS011;22761;51.542;16.450;2024-02-14T11:37:04;18.70;;;10.80;;
36817;SDS011;22761;51.542;16.450;2024-02-14T11:39:33;18.10;;;11.00;;
36817;SDS011;22761;51.542;16.450;2024-02-14T11:42:02;17.70;;;11.90;;
36817;SDS011;22761;51.542;16.450;2024-02-14T11:44:30;17.90;;;11.10;;
36817;SDS011;22761;51.542;16.450;2024-02-14T11:47:00;16.30;;;11.20;;
36817;SDS011;22761;51.542;16.450;2024-02-14T11:49:28;20.30;;;10.70;;
36817;SDS011;22761;51.542;16.450;2024-02-14T11:51:57;16.30;;;10.70;;
36817;SDS011;22761;51.542;16.450;2024-02-14T11:54:25;18.80;;;11.30;;
36817;SDS011;22761;51.542;16.450;2024-02-14T11:56:53;16.40;;;11.10;;
36817;SDS011;22761;51.542;16.450;2024-02-14T11:59:21;16.10;;;10.80;;
36817;SDS011;22761;51.542;16.450;2024-02-14T12:01:51;15.00;;;10.70;;
36817;SDS011;22761;51.542;16.450;2024-02-14T12:04:19;15.60;;;11.20;;
36817;SDS011;22761;51.542;16.450;2024-02-14T12:06:48;14.70;;;9.90;;
36817;SDS011;22761;51.542;16.450;2024-02-14T12:09:16;16.60;;;9.40;;
36817;SDS011;22761;51.542;16.450;2024-02-14T12:11:46;14.20;;;9.20;;
36817;SDS011;22761;51.542;16.450;2024-02-14T12:14:15;13.80;;;8.10;;
36817;SDS011;22761;51.542;16.450;2024-02-14T12:16:43;12.40;;;7.70;;
36817;SDS011;22761;51.542;16.450;2024-02-14T12:19:15;11.70;;;7.50;;
36817;SDS011;22761;51.542;16.450;2024-02-14T12:21:45;10.40;;;7.10;;
36817;SDS011;22761;51.542;16.450;2024-02-14T12:24:13;12.40;;;7.00;;
36817;SDS011;22761;51.542;16.450;2024-02-14T12:26:43;11.30;;;6.70;;
36817;SDS011;22761;51.542;16.450;2024-02-14T12:29:11;16.10;;;7.90;;
36817;SDS011;22761;51.542;16.450;2024-02-14T12:31:41;9.00;;;6.10;;
36817;SDS011;22761;51.542;16.450;2024-02-14T12:36:41;9.50;;;5.20;;
36817;SDS011;22761;51.542;16.450;2024-02-14T12:39:09;9.90;;;6.40;;
36817;SDS011;22761;51.542;16.450;2024-02-14T12:41:40;9.30;;;6.00;;
36817;SDS011;22761;51.542;16.450;2024-02-14T12:44:09;11.20;;;6.10;;
36817;SDS011;22761;51.542;16.450;2024-02-14T12:46:37;10.10;;;6.10;;
36817;SDS011;22761;51.542;16.450;2024-02-14T12:49:06;8.40;;;5.30;;
36817;SDS011;22761;51.542;16.450;2024-02-14T12:51:37;10.70;;;6.00;;
36817;SDS011;22761;51.542;16.450;2024-02-14T12:54:06;8.90;;;5.20;;
36817;SDS011;22761;51.542;16.450;2024-02-14T12:56:37;7.70;;;4.90;;
36817;SDS011;22761;51.542;16.450;2024-02-14T12:59:05;9.50;;;5.20;;
36817;SDS011;22761;51.542;16.450;2024-02-14T13:01:34;8.30;;;4.80;;
36817;SDS011;22761;51.542;16.450;2024-02-14T13:04:03;8.70;;;5.20;;
36817;SDS011;22761;51.542;16.450;2024-02-14T13:06:33;8.00;;;4.70;;
36817;SDS011;22761;51.542;16.450;2024-02-14T13:09:02;7.80;;;4.80;;
36817;SDS011;22761;51.542;16.450;2024-02-14T13:11:30;12.40;;;6.10;;
36817;SDS011;22761;51.542;16.450;2024-02-14T13:13:59;9.30;;;5.30;;
36817;SDS011;22761;51.542;16.450;2024-02-14T13:16:28;10.10;;;4.90;;
36817;SDS011;22761;51.542;16.450;2024-02-14T13:18:56;8.30;;;5.20;;
36817;SDS011;22761;51.542;16.450;2024-02-14T13:21:25;7.90;;;5.10;;
36817;SDS011;22761;51.542;16.450;2024-02-14T13:23:54;10.70;;;5.40;;
36817;SDS011;22761;51.542;16.450;2024-02-14T13:26:23;9.50;;;5.00;;
36817;SDS011;22761;51.542;16.450;2024-02-14T13:28:51;10.40;;;6.10;;
36817;SDS011;22761;51.542;16.450;2024-02-14T13:31:19;9.50;;;5.20;;
36817;SDS011;22761;51.542;16.450;2024-02-14T13:33:48;9.60;;;6.10;;
36817;SDS011;22761;51.542;16.450;2024-02-14T13:36:16;8.90;;;4.80;;
36817;SDS011;22761;51.542;16.450;2024-02-14T13:38:45;8.00;;;4.60;;
36817;SDS011;22761;51.542;16.450;2024-02-14T13:41:14;11.10;;;4.50;;
36817;SDS011;22761;51.542;16.450;2024-02-14T13:43:43;6.20;;;3.80;;
36817;SDS011;22761;51.542;16.450;2024-02-14T13:46:12;10.70;;;5.10;;
36817;SDS011;22761;51.542;16.450;2024-02-14T13:48:41;8.00;;;4.10;;
36817;SDS011;22761;51.542;16.450;2024-02-14T13:51:10;8.90;;;4.30;;
36817;SDS011;22761;51.542;16.450;2024-02-14T13:53:38;8.70;;;4.00;;
36817;SDS011;22761;51.542;16.450;2024-02-14T13:56:07;7.90;;;3.80;;
36817;SDS011;22761;51.542;16.450;2024-02-14T13:58:35;7.00;;;4.10;;
36817;SDS011;22761;51.542;16.450;2024-02-14T14:01:06;8.60;;;3.60;;
36817;SDS011;22761;51.542;16.450;2024-02-14T14:03:35;7.10;;;3.20;;
36817;SDS011;22761;51.542;16.450;2024-02-14T14:06:04;7.10;;;3.50;;
36817;SDS011;22761;51.542;16.450;2024-02-14T14:08:34;6.20;;;3.40;;
36817;SDS011;22761;51.542;16.450;2024-02-14T14:11:03;18.90;;;10.40;;
36817;SDS011;22761;51.542;16.450;2024-02-14T14:13:31;11.00;;;5.60;;
36817;SDS011;22761;51.542;16.450;2024-02-14T14:16:01;20.00;;;11.40;;
36817;SDS011;22761;51.542;16.450;2024-02-14T14:18:29;7.80;;;4.20;;
36817;SDS011;22761;51.542;16.450;2024-02-14T14:20:58;15.80;;;8.30;;
36817;SDS011;22761;51.542;16.450;2024-02-14T14:23:26;7.10;;;4.30;;
36817;SDS011;22761;51.542;16.450;2024-02-14T14:25:54;8.40;;;3.30;;
36817;SDS011;22761;51.542;16.450;2024-02-14T14:28:22;8.90;;;4.10;;